GHCO2: Honey Creek nr South West City, MO

Data processed at Tue May 21 2019 23:50


All information presented herein is the property of the government of the United States of America and may be revised or deleted at any time without prior notice.
Dissemination of this information without the expressed written consent of the Public Affairs Office, Tulsa District U.S. Army Corps of Engineers is strictly prohibited.
These data are gathered electronically and, as presented, have not undergone any form of quality control. These data are not guaranteed to be valid or correct.
Go to home page.
Go to station list.
Go to home page.

Upstream stations:

Downstream station:
Previous Day
Next Day
Current Day
    
SHEF ID:       GHCO2     Honey Creek near South West City
STATION TYPE:  

                STAGE  RIV-FLOW  BAT-LOAD
                   ft       cfs      volt
              Ccp-Rev   Ccp-Rev   Ccp-Rev
(US/Central)
05/21 00:00      5.82       326     12.30
05/21 01:00      8.24      1165     12.30
05/21 02:00     10.14      2108     12.30
05/21 03:00     11.44      3135     12.30
05/21 04:00     11.97      3872     12.30
05/21 05:00     11.83      3654     12.30
05/21 06:00     10.89      2616     12.30
05/21 07:00     10.12      2095     12.30
05/21 08:00      9.45      1721     12.30
05/21 09:00      8.84      1430     12.30
05/21 10:00      8.50      1278     12.30
05/21 11:00      8.51      1282     12.30
05/21 12:00      9.34      1667     12.30
05/21 13:00     10.37      2257     12.36
05/21 14:00     10.98      2685     12.36
05/21 15:00     11.47      3167     12.36
05/21 16:00     11.67      3420     12.42
05/21 17:00     11.33      3017     12.65
05/21 18:00     10.50      2343     12.65
05/21 19:00      9.71      1856     12.60
05/21 20:00      9.15      1576     12.48
05/21 21:00      8.64      1340     12.42
05/21 22:00      8.22      1157     12.36
05/21 23:00      7.94      1041     12.36